createdAt,value
2023-11-29T00:02:56.884Z,67.18
2023-11-29T00:05:46.201Z,67.12
2023-11-29T00:08:33.715Z,67.38
2023-11-29T00:11:22.724Z,67.61
2023-11-29T00:14:11.108Z,67.90
2023-11-29T00:17:01.964Z,67.59
2023-11-29T00:19:52.883Z,67.45
2023-11-29T00:22:40.270Z,67.54
2023-11-29T00:25:27.551Z,67.43
2023-11-29T00:28:14.703Z,67.24
2023-11-29T00:31:02.581Z,67.21
2023-11-29T00:33:49.627Z,67.43
2023-11-29T00:36:36.615Z,67.48
2023-11-29T00:39:23.520Z,67.45
2023-11-29T00:42:10.676Z,67.45
2023-11-29T00:44:57.555Z,67.56
2023-11-29T00:47:44.399Z,67.45
2023-11-29T00:50:31.528Z,67.22
2023-11-29T00:53:18.611Z,67.33
2023-11-29T00:56:06.393Z,67.17
2023-11-29T00:58:53.200Z,67.17
2023-11-29T01:01:41.583Z,67.11
2023-11-29T01:04:28.772Z,67.14
2023-11-29T01:07:16.286Z,67.19
2023-11-29T01:10:03.442Z,67.20
2023-11-29T01:12:50.518Z,67.43
2023-11-29T01:15:41.514Z,67.39
2023-11-29T01:18:29.387Z,67.29
2023-11-29T01:21:25.789Z,67.11
2023-11-29T01:24:19.846Z,67.02
2023-11-29T01:27:06.555Z,66.94
2023-11-29T01:29:53.570Z,66.78
2023-11-29T01:32:40.896Z,66.80
2023-11-29T01:35:28.238Z,66.92
2023-11-29T01:38:15.100Z,66.66
2023-11-29T01:41:06.571Z,66.40
2023-11-29T01:43:54.268Z,66.25
2023-11-29T01:46:42.359Z,66.44
2023-11-29T01:49:31.557Z,66.33
2023-11-29T01:52:18.791Z,66.26
2023-11-29T01:55:07.327Z,66.32
2023-11-29T01:57:56.018Z,65.84
2023-11-29T02:00:43.330Z,65.78
2023-11-29T02:03:30.457Z,65.87
2023-11-29T02:06:17.879Z,65.66
2023-11-29T02:09:05.366Z,65.58
2023-11-29T02:11:53.847Z,65.67
2023-11-29T02:14:43.792Z,65.58
2023-11-29T02:17:30.606Z,65.65
2023-11-29T02:20:19.744Z,65.73
2023-11-29T02:23:20.589Z,65.92
2023-11-29T02:26:07.779Z,65.96
2023-11-29T02:28:55.239Z,65.79
2023-11-29T02:31:42.627Z,66.15
2023-11-29T02:34:30.344Z,66.36
2023-11-29T02:37:17.044Z,66.05
2023-11-29T02:40:04.743Z,66.01
2023-11-29T02:42:52.072Z,66.32
2023-11-29T02:45:38.979Z,66.48
2023-11-29T02:48:26.304Z,66.43
2023-11-29T02:51:13.542Z,66.55
2023-11-29T02:54:02.133Z,66.68
2023-11-29T02:56:49.184Z,66.75
2023-11-29T02:59:36.417Z,66.95
2023-11-29T03:02:23.155Z,66.69
2023-11-29T03:05:10.764Z,66.63
2023-11-29T03:07:57.563Z,66.65
2023-11-29T03:10:45.145Z,66.64
2023-11-29T03:13:32.180Z,66.56
2023-11-29T03:16:19.044Z,66.71
2023-11-29T03:19:05.899Z,66.51
2023-11-29T03:21:53.316Z,66.59
2023-11-29T03:24:43.230Z,66.50
2023-11-29T03:27:30.433Z,66.43
2023-11-29T03:30:21.578Z,66.38
2023-11-29T03:33:08.893Z,66.47
2023-11-29T03:35:57.573Z,66.46
2023-11-29T03:38:45.022Z,66.29
2023-11-29T03:41:33.435Z,66.50
2023-11-29T03:44:20.691Z,66.44
2023-11-29T03:47:07.904Z,66.56
2023-11-29T03:49:56.393Z,66.73
2023-11-29T03:52:44.378Z,66.82
2023-11-29T03:55:31.766Z,66.80
2023-11-29T03:58:18.756Z,66.75
2023-11-29T04:01:05.864Z,66.79
2023-11-29T04:03:52.983Z,66.66
2023-11-29T04:06:40.240Z,66.62
2023-11-29T04:09:27.122Z,66.96
2023-11-29T04:12:14.084Z,67.10
2023-11-29T04:15:00.971Z,67.21
2023-11-29T04:17:47.865Z,67.31
2023-11-29T04:20:40.258Z,67.51
2023-11-29T04:23:27.129Z,67.23
2023-11-29T04:26:39.786Z,67.19
2023-11-29T04:29:26.966Z,67.23
2023-11-29T04:32:16.018Z,66.91
2023-11-29T04:35:10.630Z,66.86
2023-11-29T04:37:57.506Z,66.87
2023-11-29T04:40:44.877Z,67.14
2023-11-29T04:43:31.970Z,67.05
2023-11-29T04:46:19.170Z,67.05
2023-11-29T04:49:06.645Z,67.29
2023-11-29T04:51:53.637Z,67.27
2023-11-29T04:54:40.217Z,67.19
2023-11-29T04:57:27.303Z,67.31
2023-11-29T05:00:15.203Z,67.54
2023-11-29T05:03:02.424Z,67.75
2023-11-29T05:05:49.773Z,67.70
2023-11-29T05:08:37.231Z,67.85
2023-11-29T05:11:24.862Z,67.84
2023-11-29T05:14:13.298Z,67.97
2023-11-29T05:17:00.657Z,67.77
2023-11-29T05:19:47.605Z,67.81
2023-11-29T05:22:35.611Z,67.86
2023-11-29T05:25:22.613Z,67.85
2023-11-29T05:28:09.569Z,67.91
2023-11-29T05:30:56.529Z,68.01
2023-11-29T05:33:45.750Z,68.06
2023-11-29T05:36:32.432Z,67.80
2023-11-29T05:39:21.222Z,67.71
2023-11-29T05:42:09.680Z,67.51
2023-11-29T05:44:57.347Z,67.31
2023-11-29T05:47:44.924Z,67.22
2023-11-29T05:50:32.345Z,67.08
2023-11-29T05:53:22.733Z,66.99
2023-11-29T05:56:10.768Z,66.66
2023-11-29T05:58:57.839Z,66.70
2023-11-29T06:01:46.090Z,66.95
2023-11-29T06:04:33.491Z,66.75
2023-11-29T06:07:20.716Z,66.77
2023-11-29T06:10:08.707Z,66.57
2023-11-29T06:12:55.885Z,66.66
2023-11-29T06:15:44.493Z,66.43
2023-11-29T06:18:31.370Z,66.61
2023-11-29T06:21:19.572Z,66.28
2023-11-29T06:24:07.194Z,66.44
2023-11-29T06:26:54.388Z,66.27
2023-11-29T06:29:41.440Z,66.25
2023-11-29T06:32:28.227Z,66.45
2023-11-29T06:35:16.666Z,66.46
2023-11-29T06:38:08.105Z,66.37
2023-11-29T06:40:59.708Z,66.17
2023-11-29T06:43:49.092Z,65.63
2023-11-29T06:46:36.140Z,65.89
2023-11-29T06:49:23.058Z,65.88
2023-11-29T06:52:10.174Z,65.80
2023-11-29T06:54:57.033Z,65.68
2023-11-29T06:57:47.634Z,65.64
2023-11-29T07:00:34.565Z,65.89
2023-11-29T07:03:21.539Z,66.06
2023-11-29T07:06:09.368Z,65.83
2023-11-29T07:08:55.895Z,65.48
2023-11-29T07:11:45.333Z,65.69
2023-11-29T07:14:32.600Z,65.60
2023-11-29T07:17:19.625Z,65.44
2023-11-29T07:20:08.314Z,65.49
2023-11-29T07:22:55.608Z,65.79
2023-11-29T07:25:42.702Z,65.93
2023-11-29T07:28:29.623Z,66.05
2023-11-29T07:31:16.318Z,66.01
2023-11-29T07:34:03.992Z,65.90
2023-11-29T07:36:53.167Z,65.74
2023-11-29T07:39:40.281Z,65.66
2023-11-29T07:42:27.330Z,65.55
2023-11-29T07:45:15.323Z,65.29
2023-11-29T07:48:02.843Z,65.10
2023-11-29T07:50:51.759Z,65.24
2023-11-29T07:53:39.125Z,65.00
2023-11-29T07:56:25.791Z,65.35
2023-11-29T07:59:13.960Z,64.78
2023-11-29T08:02:00.477Z,65.00
2023-11-29T08:04:47.396Z,65.14
2023-11-29T08:07:34.617Z,65.18
2023-11-29T08:10:23.247Z,65.32
2023-11-29T08:13:10.405Z,65.34
2023-11-29T08:15:58.193Z,65.13
2023-11-29T08:18:46.601Z,65.15
2023-11-29T08:21:34.263Z,65.10
2023-11-29T08:24:21.381Z,65.28
2023-11-29T08:27:08.699Z,65.49
2023-11-29T08:29:55.842Z,65.30
2023-11-29T08:32:43.032Z,65.22
2023-11-29T08:35:29.825Z,64.90
2023-11-29T08:38:17.525Z,64.70
2023-11-29T08:41:04.465Z,64.85
2023-11-29T08:43:51.459Z,64.95
2023-11-29T08:46:38.362Z,65.08
2023-11-29T08:49:25.850Z,65.48
2023-11-29T08:52:12.835Z,65.30
2023-11-29T08:55:00.405Z,65.48
2023-11-29T08:57:47.493Z,65.40
2023-11-29T09:00:35.212Z,65.20
2023-11-29T09:03:23.156Z,65.07
2023-11-29T09:06:10.489Z,64.88
2023-11-29T09:08:57.688Z,64.52
2023-11-29T09:11:45.875Z,64.70
2023-11-29T09:14:32.886Z,64.67
2023-11-29T09:17:21.818Z,64.53
2023-11-29T09:20:09.338Z,64.12
2023-11-29T09:22:56.630Z,63.88
2023-11-29T09:25:43.575Z,64.24
2023-11-29T09:28:30.752Z,64.65
2023-11-29T09:31:18.038Z,65.02
2023-11-29T09:34:05.531Z,65.46
2023-11-29T09:36:55.156Z,65.66
2023-11-29T09:39:42.278Z,65.92
2023-11-29T09:42:29.781Z,65.61
2023-11-29T09:45:23.528Z,65.51
2023-11-29T09:48:11.860Z,65.59
2023-11-29T09:50:59.109Z,65.53
2023-11-29T09:53:46.511Z,65.57
2023-11-29T09:56:34.126Z,65.61
2023-11-29T09:59:23.322Z,65.60
2023-11-29T10:02:13.278Z,65.98
2023-11-29T10:05:03.268Z,65.55
2023-11-29T10:07:50.915Z,65.49
2023-11-29T10:10:38.479Z,65.33
2023-11-29T10:13:25.509Z,65.41
2023-11-29T10:16:12.395Z,65.14
2023-11-29T10:19:03.156Z,64.80
2023-11-29T10:21:53.317Z,65.28
2023-11-29T10:24:40.504Z,65.26
2023-11-29T10:27:27.663Z,64.98
2023-11-29T10:30:17.685Z,64.80
2023-11-29T10:33:08.320Z,64.72
2023-11-29T10:35:55.686Z,64.46
2023-11-29T10:38:55.815Z,64.73
2023-11-29T10:41:56.150Z,64.65
2023-11-29T10:44:45.226Z,64.63
2023-11-29T10:47:36.478Z,64.40
2023-11-29T10:50:24.851Z,64.35
2023-11-29T10:53:11.480Z,64.45
2023-11-29T10:55:58.466Z,64.50
2023-11-29T10:58:50.367Z,64.54
2023-11-29T11:01:40.092Z,64.56
2023-11-29T11:04:37.740Z,64.94
2023-11-29T11:07:39.490Z,64.58
2023-11-29T11:10:27.922Z,64.53
2023-11-29T11:13:36.486Z,64.51
2023-11-29T11:16:23.489Z,64.08
2023-11-29T11:19:10.278Z,64.21
2023-11-29T11:21:57.844Z,64.12
2023-11-29T11:25:04.743Z,63.88
2023-11-29T11:27:52.079Z,63.33
2023-11-29T11:30:54.678Z,63.61
2023-11-29T11:33:54.437Z,63.53
2023-11-29T11:36:42.676Z,62.98
2023-11-29T11:39:30.044Z,62.88
2023-11-29T11:42:16.869Z,62.99
2023-11-29T11:45:04.481Z,62.83
2023-11-29T11:47:52.138Z,62.60
2023-11-29T11:50:39.369Z,62.51
2023-11-29T11:53:26.461Z,62.22
2023-11-29T11:56:23.426Z,63.19
2023-11-29T11:59:10.428Z,63.07
2023-11-29T12:01:57.436Z,63.00
2023-11-29T12:04:44.436Z,63.37
2023-11-29T12:07:32.239Z,63.39
2023-11-29T12:10:19.111Z,63.45
2023-11-29T12:13:08.120Z,63.38
2023-11-29T12:15:57.286Z,63.28
2023-11-29T12:18:44.894Z,63.24
2023-11-29T12:21:32.179Z,63.49
2023-11-29T12:24:19.262Z,63.64
2023-11-29T12:27:10.451Z,63.78
2023-11-29T12:30:01.161Z,63.97
2023-11-29T12:32:48.104Z,63.75
2023-11-29T12:35:42.579Z,63.81
2023-11-29T12:38:29.782Z,63.85
2023-11-29T12:41:16.458Z,63.49
2023-11-29T12:44:04.608Z,63.63
2023-11-29T12:46:51.624Z,63.62
2023-11-29T12:49:38.632Z,63.73
2023-11-29T12:52:26.712Z,63.10
2023-11-29T12:55:14.166Z,62.78
2023-11-29T12:58:01.099Z,62.78
2023-11-29T13:00:48.141Z,63.04
2023-11-29T13:03:36.371Z,63.03
2023-11-29T13:06:24.644Z,62.89
2023-11-29T13:09:11.361Z,63.08
2023-11-29T13:11:59.435Z,63.11
2023-11-29T13:14:46.409Z,63.22
2023-11-29T13:17:33.433Z,63.25
2023-11-29T13:20:20.317Z,63.10
2023-11-29T13:23:09.745Z,62.80
2023-11-29T13:25:56.434Z,62.81
2023-11-29T13:28:43.112Z,63.01
2023-11-29T13:31:30.443Z,62.99
2023-11-29T13:34:18.466Z,63.00
2023-11-29T13:37:05.576Z,63.07
2023-11-29T13:39:52.465Z,62.64
2023-11-29T13:42:39.572Z,62.92
2023-11-29T13:45:26.584Z,63.02
2023-11-29T13:48:13.496Z,62.83
2023-11-29T13:51:01.628Z,62.72
2023-11-29T13:53:48.604Z,62.93
2023-11-29T13:56:38.765Z,62.94
2023-11-29T13:59:25.595Z,62.74
2023-11-29T14:02:18.183Z,62.92
2023-11-29T14:05:06.431Z,63.16
2023-11-29T14:07:53.468Z,63.17
2023-11-29T14:10:40.344Z,63.17
2023-11-29T14:13:30.112Z,63.12
2023-11-29T14:16:17.361Z,63.07
2023-11-29T14:19:05.428Z,63.08
2023-11-29T14:21:52.201Z,62.92
2023-11-29T14:24:40.902Z,63.22
2023-11-29T14:27:30.035Z,62.97
2023-11-29T14:30:21.146Z,63.09
2023-11-29T14:33:08.436Z,63.02
2023-11-29T14:35:55.713Z,63.10
2023-11-29T14:38:42.637Z,62.84
2023-11-29T14:41:30.792Z,62.85
2023-11-29T14:44:18.422Z,62.91
2023-11-29T14:47:07.104Z,62.89
2023-11-29T14:49:54.342Z,62.80
2023-11-29T14:52:43.711Z,63.71
2023-11-29T14:55:30.983Z,64.45
2023-11-29T14:58:17.972Z,63.90
2023-11-29T15:01:05.494Z,63.73
2023-11-29T15:03:52.186Z,63.61
2023-11-29T15:06:39.227Z,63.26
2023-11-29T15:09:26.053Z,63.35
2023-11-29T15:12:13.444Z,63.71
2023-11-29T15:15:01.095Z,63.89
2023-11-29T15:17:48.297Z,63.83
2023-11-29T15:20:35.280Z,63.78
2023-11-29T15:23:25.162Z,63.84
2023-11-29T15:26:12.044Z,64.02
2023-11-29T15:28:58.824Z,63.73
2023-11-29T15:31:45.673Z,63.51
2023-11-29T15:34:32.927Z,64.24
2023-11-29T15:37:20.325Z,64.40
2023-11-29T15:40:07.893Z,64.15
2023-11-29T15:42:55.160Z,64.07
2023-11-29T15:45:42.055Z,63.90
2023-11-29T15:48:31.195Z,63.66
2023-11-29T15:51:18.136Z,64.08
2023-11-29T15:54:05.087Z,64.19
2023-11-29T15:56:51.642Z,64.16
2023-11-29T15:59:38.950Z,63.92
2023-11-29T16:02:25.967Z,64.23
2023-11-29T16:05:13.267Z,64.01
2023-11-29T16:08:00.234Z,63.83
2023-11-29T16:10:47.238Z,64.15
2023-11-29T16:13:34.458Z,64.15
2023-11-29T16:16:21.671Z,64.37
2023-11-29T16:19:11.196Z,64.38
2023-11-29T16:21:58.024Z,64.72
2023-11-29T16:24:45.666Z,64.77
2023-11-29T16:27:37.213Z,64.49
2023-11-29T16:30:25.223Z,64.73
2023-11-29T16:33:12.342Z,64.41
2023-11-29T16:36:00.075Z,64.40
2023-11-29T16:38:47.230Z,64.24
2023-11-29T16:41:35.134Z,64.37
2023-11-29T16:44:21.950Z,64.55
2023-11-29T16:47:08.925Z,64.63
2023-11-29T16:49:56.101Z,64.56
2023-11-29T16:52:44.804Z,64.73
2023-11-29T16:55:32.355Z,64.70
2023-11-29T16:58:19.402Z,64.62
2023-11-29T17:01:06.740Z,64.92
2023-11-29T17:03:54.868Z,64.97
2023-11-29T17:06:42.684Z,64.93
2023-11-29T17:09:29.833Z,64.92
2023-11-29T17:12:16.398Z,65.09
2023-11-29T17:15:04.128Z,65.01
2023-11-29T17:17:51.596Z,65.37
2023-11-29T17:20:38.749Z,65.41
2023-11-29T17:23:25.752Z,64.96
2023-11-29T17:26:14.734Z,64.88
2023-11-29T17:29:02.198Z,64.74
2023-11-29T17:31:48.979Z,64.72
2023-11-29T17:34:35.971Z,64.59
2023-11-29T17:37:22.881Z,64.63
2023-11-29T17:40:12.324Z,64.57
2023-11-29T17:42:59.435Z,64.59
2023-11-29T17:45:51.745Z,64.66
2023-11-29T17:48:39.605Z,64.66
2023-11-29T17:51:26.712Z,64.75
2023-11-29T17:54:14.670Z,64.72
2023-11-29T17:57:01.864Z,64.87
2023-11-29T17:59:48.706Z,64.87
2023-11-29T18:02:35.520Z,64.98
2023-11-29T18:05:22.626Z,65.04
2023-11-29T18:08:09.920Z,64.93
2023-11-29T18:10:57.130Z,65.04
2023-11-29T18:13:43.907Z,65.09
2023-11-29T18:16:31.588Z,64.75
2023-11-29T18:19:18.377Z,64.73
2023-11-29T18:22:05.577Z,64.89
2023-11-29T18:24:52.857Z,64.94
2023-11-29T18:27:39.674Z,64.80
2023-11-29T18:30:28.235Z,64.94
2023-11-29T18:33:14.985Z,64.77
2023-11-29T18:36:02.090Z,64.50
2023-11-29T18:38:50.711Z,64.65
2023-11-29T18:41:38.117Z,64.57
2023-11-29T18:44:45.774Z,64.75
2023-11-29T18:47:32.835Z,64.92
2023-11-29T18:50:20.108Z,64.86
2023-11-29T18:53:07.508Z,65.07
2023-11-29T18:55:54.580Z,64.81
2023-11-29T18:58:44.162Z,65.35
2023-11-29T19:01:33.962Z,64.86
2023-11-29T19:04:23.947Z,64.86
2023-11-29T19:07:11.057Z,64.75
2023-11-29T19:09:57.951Z,64.98
2023-11-29T19:12:45.226Z,64.61
2023-11-29T19:15:31.911Z,64.79
2023-11-29T19:18:19.885Z,64.67
2023-11-29T19:21:10.119Z,64.63
2023-11-29T19:23:58.954Z,64.45
2023-11-29T19:26:47.096Z,64.39
2023-11-29T19:29:34.782Z,64.42
2023-11-29T19:32:25.095Z,64.63
2023-11-29T19:35:22.113Z,64.70
2023-11-29T19:38:13.581Z,64.71
2023-11-29T19:41:00.436Z,64.70
2023-11-29T19:43:48.281Z,64.65
2023-11-29T19:46:35.482Z,64.66
2023-11-29T19:49:22.437Z,64.86
2023-11-29T19:52:09.758Z,64.61
2023-11-29T19:54:57.611Z,64.85
2023-11-29T19:57:44.199Z,64.89
2023-11-29T20:00:33.579Z,64.71
2023-11-29T20:03:26.101Z,64.87
2023-11-29T20:06:22.088Z,64.63
2023-11-29T20:09:16.912Z,64.89
2023-11-29T20:12:04.859Z,64.71
2023-11-29T20:14:57.712Z,64.86
2023-11-29T20:17:46.231Z,64.94
2023-11-29T20:20:46.035Z,65.15
2023-11-29T20:23:40.418Z,65.29
2023-11-29T20:26:27.648Z,65.53
2023-11-29T20:29:14.700Z,65.34
2023-11-29T20:32:01.610Z,65.67
2023-11-29T20:35:00.630Z,65.76
2023-11-29T20:37:56.785Z,65.25
2023-11-29T20:40:47.933Z,64.90
2023-11-29T20:43:36.047Z,64.74
2023-11-29T20:46:24.277Z,64.70
2023-11-29T20:49:11.503Z,64.39
2023-11-29T20:51:58.223Z,64.21
2023-11-29T20:54:44.994Z,64.45
2023-11-29T20:57:31.915Z,64.53
2023-11-29T21:00:19.748Z,64.43
2023-11-29T21:03:07.111Z,64.23
2023-11-29T21:05:54.373Z,64.27
2023-11-29T21:08:41.529Z,64.18
2023-11-29T21:11:29.672Z,64.19
2023-11-29T21:14:16.614Z,64.23
2023-11-29T21:17:06.102Z,64.19
2023-11-29T21:19:52.858Z,64.18
2023-11-29T21:22:43.816Z,64.17
2023-11-29T21:25:32.009Z,64.22
2023-11-29T21:28:18.999Z,64.02
2023-11-29T21:31:06.778Z,63.97
2023-11-29T21:33:57.190Z,64.04
2023-11-29T21:36:44.240Z,64.12
2023-11-29T21:39:31.123Z,64.13
2023-11-29T21:42:18.983Z,64.21
2023-11-29T21:45:06.718Z,64.14
2023-11-29T21:47:53.579Z,64.18
2023-11-29T21:50:40.474Z,64.33
2023-11-29T21:53:27.459Z,64.40
2023-11-29T21:56:14.268Z,64.21
2023-11-29T21:59:02.280Z,64.22
2023-11-29T22:01:55.881Z,64.27
2023-11-29T22:04:44.263Z,64.22
2023-11-29T22:07:31.422Z,64.04
2023-11-29T22:10:18.722Z,63.98
2023-11-29T22:13:05.327Z,64.13
2023-11-29T22:15:52.701Z,64.38
2023-11-29T22:18:39.533Z,64.45
2023-11-29T22:21:29.551Z,64.26
2023-11-29T22:24:16.366Z,64.27
2023-11-29T22:27:04.297Z,64.05
2023-11-29T22:29:51.089Z,64.13
2023-11-29T22:32:38.159Z,63.81
2023-11-29T22:35:25.390Z,63.45
2023-11-29T22:38:12.576Z,63.85
2023-11-29T22:40:59.557Z,63.79
2023-11-29T22:43:46.646Z,63.56
2023-11-29T22:46:33.575Z,63.63
2023-11-29T22:49:21.516Z,63.65
2023-11-29T22:52:08.367Z,63.58
2023-11-29T22:54:56.151Z,63.73
2023-11-29T22:57:43.385Z,63.74
2023-11-29T23:00:30.347Z,63.93
2023-11-29T23:03:17.282Z,64.23
2023-11-29T23:06:04.682Z,64.45
2023-11-29T23:08:51.464Z,64.77
2023-11-29T23:11:38.710Z,64.91
2023-11-29T23:14:25.593Z,65.07
2023-11-29T23:17:12.312Z,65.06
2023-11-29T23:19:59.372Z,64.86
2023-11-29T23:22:46.484Z,64.51
2023-11-29T23:25:33.421Z,64.48
2023-11-29T23:28:20.224Z,64.27
2023-11-29T23:31:08.795Z,64.04
2023-11-29T23:33:56.396Z,64.30
2023-11-29T23:36:44.578Z,64.30
2023-11-29T23:39:31.480Z,63.87
2023-11-29T23:42:19.072Z,63.72
2023-11-29T23:45:06.573Z,63.69
2023-11-29T23:47:53.471Z,63.60
2023-11-29T23:50:40.248Z,63.89
2023-11-29T23:53:27.307Z,64.15
2023-11-29T23:56:14.085Z,64.46
2023-11-29T23:59:00.863Z,64.45
